createdAt,value
2022-07-25T00:02:16.355Z,20.30
2022-07-25T00:07:19.820Z,20.28
2022-07-25T00:12:23.153Z,20.25
2022-07-25T00:17:26.053Z,20.21
2022-07-25T00:22:28.987Z,20.18
2022-07-25T00:27:31.949Z,20.03
2022-07-25T00:32:34.853Z,19.99
2022-07-25T00:37:37.735Z,19.94
2022-07-25T00:42:40.678Z,19.99
2022-07-25T00:47:43.517Z,20.00
2022-07-25T00:52:46.669Z,19.99
2022-07-25T00:57:50.410Z,19.99
2022-07-25T01:02:53.607Z,19.96
2022-07-25T01:07:57.635Z,19.90
2022-07-25T01:13:00.511Z,19.80
2022-07-25T01:18:03.702Z,19.74
2022-07-25T01:23:06.612Z,19.65
2022-07-25T01:28:09.683Z,19.58
2022-07-25T01:33:18.346Z,19.55
2022-07-25T01:38:21.175Z,19.53
2022-07-25T01:43:24.242Z,19.52
2022-07-25T01:48:27.296Z,19.47
2022-07-25T01:53:31.453Z,19.47
2022-07-25T01:58:35.021Z,19.50
2022-07-25T02:03:37.860Z,19.57
2022-07-25T02:08:40.690Z,19.60
2022-07-25T02:13:43.575Z,19.56
2022-07-25T02:18:46.410Z,19.56
2022-07-25T02:23:50.874Z,19.55
2022-07-25T02:28:53.892Z,19.46
2022-07-25T02:33:56.688Z,19.41
2022-07-25T02:38:59.838Z,19.31
2022-07-25T02:44:02.877Z,19.17
2022-07-25T02:49:05.851Z,19.08
2022-07-25T02:54:08.716Z,18.99
2022-07-25T02:59:12.316Z,18.91
2022-07-25T03:04:16.160Z,18.83
2022-07-25T03:09:20.023Z,18.76
2022-07-25T03:14:22.869Z,18.63
2022-07-25T03:19:25.796Z,18.61
2022-07-25T03:24:28.894Z,18.56
2022-07-25T03:29:31.991Z,18.58
2022-07-25T03:34:36.671Z,18.57
2022-07-25T03:39:39.631Z,18.53
2022-07-25T03:44:43.106Z,18.55
2022-07-25T03:49:45.917Z,18.58
2022-07-25T03:54:48.736Z,18.56
2022-07-25T03:59:51.833Z,18.57
2022-07-25T04:04:54.648Z,18.61
2022-07-25T04:09:57.455Z,18.67
2022-07-25T04:15:00.402Z,18.79
2022-07-25T04:20:05.572Z,18.91
2022-07-25T04:25:10.204Z,19.05
2022-07-25T04:30:23.953Z,19.20
2022-07-25T04:35:27.784Z,19.38
2022-07-25T04:40:30.787Z,19.57
2022-07-25T04:45:34.924Z,19.76
2022-07-25T04:50:38.057Z,19.97
2022-07-25T04:55:40.862Z,20.22
2022-07-25T05:00:45.052Z,20.45
2022-07-25T05:05:47.955Z,20.65
2022-07-25T05:10:50.845Z,20.89
2022-07-25T05:15:56.733Z,21.10
2022-07-25T05:20:59.636Z,21.30
2022-07-25T05:26:02.380Z,21.54
2022-07-25T05:31:05.630Z,21.77
2022-07-25T05:36:09.268Z,22.01
2022-07-25T05:41:12.170Z,22.22
2022-07-25T05:46:15.988Z,22.47
2022-07-25T05:51:19.005Z,22.70
2022-07-25T05:56:21.986Z,22.92
2022-07-25T06:01:25.036Z,23.12
2022-07-25T06:06:28.002Z,23.34
2022-07-25T06:11:31.729Z,23.57
2022-07-25T06:16:35.012Z,23.80
2022-07-25T06:21:37.921Z,23.99
2022-07-25T06:26:40.863Z,24.23
2022-07-25T06:31:47.069Z,24.44
2022-07-25T06:36:50.283Z,24.63
2022-07-25T06:41:53.130Z,24.72
2022-07-25T06:46:56.054Z,24.87
2022-07-25T06:51:59.067Z,25.00
2022-07-25T06:57:02.169Z,25.15
2022-07-25T07:02:05.731Z,25.33
2022-07-25T07:07:08.846Z,25.50
2022-07-25T07:12:11.956Z,25.62
2022-07-25T07:17:15.421Z,25.73
2022-07-25T07:22:18.550Z,25.79
2022-07-25T07:27:23.655Z,25.81
2022-07-25T07:32:26.436Z,25.91
2022-07-25T07:37:35.058Z,25.99
2022-07-25T07:42:42.793Z,26.12
2022-07-25T07:47:48.918Z,26.24
2022-07-25T07:52:53.150Z,26.39
2022-07-25T07:57:56.515Z,26.53
2022-07-25T08:03:00.491Z,26.67
2022-07-25T08:08:04.917Z,26.80
2022-07-25T08:13:18.988Z,26.99
2022-07-25T08:18:22.258Z,27.16
2022-07-25T08:23:28.576Z,27.41
2022-07-25T08:28:32.091Z,27.65
2022-07-25T08:33:34.979Z,27.78
2022-07-25T08:38:37.911Z,27.91
2022-07-25T08:43:41.806Z,28.09
2022-07-25T08:48:45.611Z,28.10
2022-07-25T08:53:50.362Z,28.21
2022-07-25T08:58:56.420Z,28.38
2022-07-25T09:04:00.070Z,28.48
2022-07-25T09:09:08.367Z,28.59
2022-07-25T09:14:15.275Z,28.77
2022-07-25T09:19:21.354Z,28.91
2022-07-25T09:24:24.318Z,29.09
2022-07-25T09:29:33.500Z,29.37
2022-07-25T09:34:43.501Z,29.41
2022-07-25T09:39:51.684Z,29.50
2022-07-25T09:45:14.958Z,29.61
2022-07-25T09:50:19.127Z,29.76
2022-07-25T09:55:22.961Z,29.86
2022-07-25T10:00:28.952Z,29.90
2022-07-25T10:05:56.851Z,30.08
2022-07-25T10:10:59.844Z,30.29
2022-07-25T10:16:03.254Z,30.58
2022-07-25T10:21:25.670Z,30.48
2022-07-25T10:26:31.384Z,30.69
2022-07-25T10:31:39.737Z,30.61
2022-07-25T10:36:54.428Z,30.60
2022-07-25T10:42:02.471Z,30.60
2022-07-25T10:47:06.674Z,30.80
2022-07-25T10:52:20.324Z,30.95
2022-07-25T10:57:27.160Z,30.99
2022-07-25T11:02:35.829Z,31.17
2022-07-25T11:08:11.130Z,31.32
2022-07-25T11:13:15.769Z,31.22
2022-07-25T11:18:18.751Z,31.13
2022-07-25T11:23:24.782Z,31.25
2022-07-25T11:28:42.435Z,31.85
2022-07-25T11:33:49.307Z,32.21
2022-07-25T11:38:52.226Z,32.51
2022-07-25T11:43:57.373Z,32.66
2022-07-25T11:49:06.316Z,32.92
2022-07-25T11:54:10.966Z,33.22
2022-07-25T11:59:14.487Z,33.41
2022-07-25T12:04:21.040Z,33.51
2022-07-25T12:09:23.968Z,33.79
2022-07-25T12:14:26.770Z,34.06
2022-07-25T12:19:29.695Z,33.93
2022-07-25T12:24:32.655Z,34.05
2022-07-25T12:29:35.613Z,34.24
2022-07-25T12:34:38.598Z,34.45
2022-07-25T12:39:41.886Z,34.66
2022-07-25T12:44:44.654Z,34.78
2022-07-25T12:49:47.502Z,35.11
2022-07-25T12:54:50.561Z,35.46
2022-07-25T12:59:53.511Z,35.66
2022-07-25T13:04:56.468Z,35.82
2022-07-25T13:10:00.851Z,36.08
2022-07-25T13:15:05.252Z,36.07
2022-07-25T13:20:10.128Z,36.07
2022-07-25T13:25:13.015Z,36.11
2022-07-25T13:30:16.263Z,36.23
2022-07-25T13:35:20.751Z,36.10
2022-07-25T13:40:24.224Z,36.02
2022-07-25T13:45:27.232Z,36.07
2022-07-25T13:50:30.533Z,36.02
2022-07-25T13:55:33.497Z,35.83
2022-07-25T14:00:36.414Z,35.87
2022-07-25T14:05:39.799Z,35.96
2022-07-25T14:10:42.691Z,36.08
2022-07-25T14:15:45.515Z,35.72
2022-07-25T14:20:49.703Z,35.88
2022-07-25T14:25:52.654Z,35.79
2022-07-25T14:30:55.615Z,35.74
2022-07-25T14:35:59.499Z,35.55
2022-07-25T14:41:02.583Z,35.40
2022-07-25T14:46:05.932Z,35.32
2022-07-25T14:51:08.812Z,35.29
2022-07-25T14:56:12.797Z,35.35
2022-07-25T15:01:18.863Z,35.57
2022-07-25T15:06:27.232Z,35.62
2022-07-25T15:11:32.554Z,35.83
2022-07-25T15:16:35.573Z,36.12
2022-07-25T15:21:39.014Z,36.30
2022-07-25T15:26:42.234Z,36.38
2022-07-25T15:31:45.131Z,36.38
2022-07-25T15:36:48.183Z,36.43
2022-07-25T15:41:51.079Z,36.46
2022-07-25T15:46:53.973Z,36.58
2022-07-25T15:51:57.255Z,36.64
2022-07-25T15:57:00.456Z,36.70
2022-07-25T16:02:08.466Z,36.72
2022-07-25T16:07:11.414Z,36.67
2022-07-25T16:12:14.445Z,36.60
2022-07-25T16:17:17.386Z,36.48
2022-07-25T16:22:20.831Z,36.35
2022-07-25T16:27:23.717Z,36.00
2022-07-25T16:32:27.963Z,35.87
2022-07-25T16:37:30.763Z,35.79
2022-07-25T16:42:33.696Z,35.70
2022-07-25T16:47:37.145Z,35.67
2022-07-25T16:52:40.137Z,35.60
2022-07-25T16:57:43.186Z,35.39
2022-07-25T17:02:46.794Z,35.03
2022-07-25T17:07:55.731Z,34.65
2022-07-25T17:13:02.418Z,34.26
2022-07-25T17:18:05.470Z,33.87
2022-07-25T17:23:08.510Z,33.51
2022-07-25T17:28:11.391Z,33.22
2022-07-25T17:33:14.621Z,32.92
2022-07-25T17:38:20.051Z,32.58
2022-07-25T17:43:25.823Z,32.31
2022-07-25T17:48:28.819Z,32.07
2022-07-25T17:53:32.323Z,31.81
2022-07-25T17:58:35.481Z,31.49
2022-07-25T18:03:38.608Z,31.22
2022-07-25T18:08:41.857Z,30.91
2022-07-25T18:13:44.677Z,30.57
2022-07-25T18:18:47.576Z,30.23
2022-07-25T18:23:51.081Z,29.92
2022-07-25T18:28:54.349Z,29.62
2022-07-25T18:33:57.295Z,29.34
2022-07-25T18:39:00.471Z,29.06
2022-07-25T18:44:04.010Z,28.79
2022-07-25T18:49:07.159Z,28.54
2022-07-25T18:54:10.674Z,28.24
2022-07-25T18:59:13.789Z,27.89
2022-07-25T19:04:18.961Z,27.60
2022-07-25T19:09:22.194Z,27.33
2022-07-25T19:14:27.384Z,27.14
2022-07-25T19:19:30.798Z,26.92
2022-07-25T19:24:33.739Z,26.71
2022-07-25T19:29:38.187Z,26.41
2022-07-25T19:34:41.020Z,26.18
2022-07-25T19:39:43.957Z,26.04
2022-07-25T19:44:47.148Z,25.86
2022-07-25T19:49:50.242Z,25.67
2022-07-25T19:54:54.559Z,25.48
2022-07-25T19:59:57.449Z,25.30
2022-07-25T20:05:00.432Z,25.21
2022-07-25T20:10:04.571Z,25.05
2022-07-25T20:15:07.806Z,24.91
2022-07-25T20:20:12.069Z,24.79
2022-07-25T20:25:15.153Z,24.71
2022-07-25T20:30:18.851Z,24.63
2022-07-25T20:35:21.741Z,24.51
2022-07-25T20:40:24.669Z,24.38
2022-07-25T20:45:28.403Z,24.22
2022-07-25T20:50:31.442Z,24.07
2022-07-25T20:55:34.638Z,23.96
2022-07-25T21:00:37.904Z,23.92
2022-07-25T21:05:43.263Z,23.85
2022-07-25T21:10:46.183Z,23.75
2022-07-25T21:15:50.701Z,23.67
2022-07-25T21:20:55.082Z,23.56
2022-07-25T21:25:58.302Z,23.50
2022-07-25T21:31:01.273Z,23.43
2022-07-25T21:36:04.893Z,23.35
2022-07-25T21:41:07.755Z,23.27
2022-07-25T21:46:10.852Z,23.20
2022-07-25T21:51:18.885Z,23.17
2022-07-25T21:56:25.672Z,23.09
2022-07-25T22:01:28.807Z,23.04
2022-07-25T22:06:31.931Z,22.98
2022-07-25T22:11:43.119Z,22.91
2022-07-25T22:16:50.401Z,22.84
2022-07-25T22:21:53.972Z,22.75
2022-07-25T22:26:56.916Z,22.66
2022-07-25T22:32:00.878Z,22.62
2022-07-25T22:37:03.872Z,22.55
2022-07-25T22:42:07.001Z,22.47
2022-07-25T22:47:09.994Z,22.40
2022-07-25T22:52:13.684Z,22.37
2022-07-25T22:57:16.540Z,22.34
2022-07-25T23:02:19.512Z,22.36
2022-07-25T23:07:22.378Z,22.33
2022-07-25T23:12:25.348Z,22.38
2022-07-25T23:17:29.139Z,22.38
2022-07-25T23:22:31.949Z,22.34
2022-07-25T23:27:35.191Z,22.33
2022-07-25T23:32:38.289Z,22.15
2022-07-25T23:37:41.193Z,22.00
2022-07-25T23:42:44.163Z,21.86
2022-07-25T23:47:47.332Z,21.78
2022-07-25T23:52:52.346Z,21.75
2022-07-25T23:57:55.120Z,21.74
